Grand Canyon, AZ

11:23 AM MST on December 04, 2016 (GMT -0700)
KAZGRAND3 | | Change Station

Elev 6991 ft 36.05 °N, 112.12 °W | Updated 1 minute ago

Clear
Clear
47.8 °F
Feels Like 48 °F
N
0.0
Wind Variable Wind from East
Gusts 2.0 mph

Today
High -- | Low -- °F
--% Chance of Precip.
Yesterday
High -- | Low -- °F
Precip. -- in
Pressure 30.22 in
Visibility 10.0 miles
Clouds Clear
Windchill 48 °F
Dew Point 4 °F
Humidity 16%
Rainfall 0.00 in
Snow Depth Not available.
7:23 AM 5:14 PM
Waxing Crescent, 24% visible
METAR KGCN 041754Z 00000KT 10SM CLR 08/M17 A3021 RMK AO2 SLP233 T00781167 10078 21133 51002 $
Pressure 30.22 in
Visibility 10.0 miles
Clouds Clear
Windchill 48 °F
Dew Point 4 °F
Humidity 16%
Rainfall 0.00 in
Snow Depth Not available.
7:23 AM 5:14 PM
Waxing Crescent, 24% visible
METAR KGCN 041754Z 00000KT 10SM CLR 08/M17 A3021 RMK AO2 SLP233 T00781167 10078 21133 51002 $

10-Day Weather Forecast

Almanac

Astronomy

Dec. 04, 2016 Rise Set
Actual Time
Civil Twilight
Nautical Twilight
Astronomical Twilight
Moon
Length of Visible Light
Length of Day
Tomorrow will be .
, % of the Moon is Illuminated

Today's Extremes

State Highs State Lows

Community

WunderPhotos

Upload Photos

1,955,639 photos uploaded!

WunderBlog® & News

Nearby

Air Quality

  Air Quality AQ Index Pollutant
Not available.

Snow Depth

Station Depth Elevation

Earthquake Activity

City Distance Mag. Time & Date
Minimum magnitude displayed is 2.5.

Coastal Water Temperatures

Place Temperature

Stations

Nearby Weather Stations

Station Location Temp. Windchill Dew Point Humidity Wind Precip. Elev Updated Type
                   

Watches & Warnings

There are currently no watches in effect.